Time;durP1;ratioP1;P1;durP2;ratioP2;P2;SDS_P1;SDS_P2;PMS_P1;PMS_P2;Temp;Humidity;BMP_temperature;BMP_pressure;BME280_temperature;BME280_humidity;BME280_pressure;Samples;Min_cycle;Max_cycle;Signal;HPM_P1;HPM_P2
2022/04/05 00:01:59;;;;;;;26.70;17.00;;;;;;;;;;6149161;28;20267;-68
2022/04/05 00:05:01;;;;;;;28.13;17.45;;;;;;;;;;6148967;28;20404;-68
2022/04/05 00:08:02;;;;;;;23.10;16.38;;;;;;;;;;6149015;28;20047;-68
2022/04/05 00:11:04;;;;;;;23.35;17.00;;;;;;;;;;6147648;28;20101;-68
2022/04/05 00:14:07;;;;;;;24.67;17.52;;;;;;;;;;6149093;28;20055;-68
2022/04/05 00:17:10;;;;;;;29.20;16.95;;;;;;;;;;6148142;28;20624;-68
2022/04/05 00:20:12;;;;;;;27.52;17.23;;;;;;;;;;6147983;28;20125;-68
2022/04/05 00:23:14;;;;;;;24.02;16.38;;;;;;;;;;6148182;28;20039;-68
2022/04/05 00:26:16;;;;;;;25.60;17.35;;;;;;;;;;6148848;28;20058;-67
2022/04/05 00:29:19;;;;;;;29.20;16.45;;;;;;;;;;6145885;28;20062;-68
2022/04/05 00:32:22;;;;;;;26.85;16.80;;;;;;;;;;6147970;28;20047;-68
2022/04/05 00:35:24;;;;;;;29.13;18.05;;;;;;;;;;6148319;28;20087;-68
2022/04/05 00:38:25;;;;;;;25.48;16.58;;;;;;;;;;6148289;28;20047;-68
2022/04/05 00:41:27;;;;;;;24.25;16.55;;;;;;;;;;6148701;28;20051;-68
2022/04/05 00:44:29;;;;;;;27.58;15.85;;;;;;;;;;6148157;28;20173;-68
2022/04/05 00:47:32;;;;;;;23.42;16.42;;;;;;;;;;6147527;28;20047;-68
2022/04/05 00:50:36;;;;;;;23.02;16.17;;;;;;;;;;6147782;28;20402;-68
2022/04/05 00:53:38;;;;;;;23.92;16.08;;;;;;;;;;6148518;28;20411;-69
2022/04/05 00:56:41;;;;;;;23.75;16.08;;;;;;;;;;6147974;28;20145;-68
2022/04/05 00:59:45;;;;;;;24.52;17.52;;;;;;;;;;6148156;28;20529;-68
2022/04/05 01:02:49;;;;;;;23.58;15.77;;;;;;;;;;6147689;28;20507;-68
2022/04/05 01:05:51;;;;;;;27.08;17.08;;;;;;;;;;6147928;28;20198;-68
2022/04/05 01:08:53;;;;;;;22.25;16.10;;;;;;;;;;6147239;28;20047;-68
2022/04/05 01:11:55;;;;;;;24.40;15.70;;;;;;;;;;6147398;28;20063;-68
2022/04/05 01:14:57;;;;;;;23.02;16.63;;;;;;;;;;6146843;28;20138;-68
2022/04/05 01:18:00;;;;;;;24.35;16.52;;;;;;;;;;6146498;28;20070;-68
2022/04/05 01:21:02;;;;;;;22.98;16.42;;;;;;;;;;6145642;28;20074;-68
2022/04/05 01:24:07;;;;;;;23.10;16.50;;;;;;;;;;6145241;28;20443;-68
2022/04/05 01:27:08;;;;;;;25.02;17.67;;;;;;;;;;6145047;28;20055;-68
2022/04/05 01:30:11;;;;;;;25.67;17.48;;;;;;;;;;6147299;28;20054;-68
2022/04/05 01:33:12;;;;;;;22.45;16.48;;;;;;;;;;6146966;28;20130;-68
2022/04/05 01:36:21;;;;;;;24.20;17.45;;;;;;;;;;6146329;28;20050;-68
2022/04/05 01:39:27;;;;;;;26.77;18.08;;;;;;;;;;6146373;28;20047;-68
2022/04/05 01:42:29;;;;;;;24.80;17.45;;;;;;;;;;6145565;28;20047;-68
2022/04/05 01:45:31;;;;;;;27.00;18.13;;;;;;;;;;6144885;28;20134;-68
2022/04/05 01:48:34;;;;;;;26.80;16.80;;;;;;;;;;6143103;28;20130;-68
2022/04/05 01:51:37;;;;;;;26.35;18.25;;;;;;;;;;6144273;28;20062;-68
2022/04/05 01:54:41;;;;;;;26.55;17.15;;;;;;;;;;6142760;28;20201;-68
2022/04/05 01:57:43;;;;;;;28.08;18.42;;;;;;;;;;6146682;28;20661;-68
2022/04/05 02:00:45;;;;;;;28.77;17.08;;;;;;;;;;6145498;28;20051;-69
2022/04/05 02:03:46;;;;;;;28.33;18.98;;;;;;;;;;6146808;28;20427;-68
2022/04/05 02:06:48;;;;;;;26.08;18.50;;;;;;;;;;6146367;28;20066;-68
2022/04/05 02:09:52;;;;;;;26.55;19.40;;;;;;;;;;6146785;28;20058;-68
2022/04/05 02:12:54;;;;;;;27.33;18.90;;;;;;;;;;6146065;28;20058;-68
2022/04/05 02:15:55;;;;;;;25.60;18.63;;;;;;;;;;6146442;28;20050;-68
2022/04/05 02:18:57;;;;;;;26.13;17.77;;;;;;;;;;6146385;28;20053;-68
2022/04/05 02:21:58;;;;;;;27.33;17.65;;;;;;;;;;6146791;28;20057;-68
2022/04/05 02:25:03;;;;;;;28.77;18.98;;;;;;;;;;6145450;28;20063;-68
2022/04/05 02:28:06;;;;;;;28.17;18.25;;;;;;;;;;6146491;28;20530;-69
2022/04/05 02:31:08;;;;;;;27.58;17.65;;;;;;;;;;6145832;28;20126;-68
2022/04/05 02:34:10;;;;;;;26.60;18.35;;;;;;;;;;6142435;28;20690;-68
2022/04/05 02:37:12;;;;;;;27.13;18.40;;;;;;;;;;6145255;28;20047;-69
2022/04/05 02:40:15;;;;;;;26.92;18.25;;;;;;;;;;6145595;28;20055;-68
2022/04/05 02:43:16;;;;;;;28.75;19.40;;;;;;;;;;6142558;28;20138;-68
2022/04/05 02:46:18;;;;;;;27.48;18.40;;;;;;;;;;6142602;28;20126;-68
2022/04/05 02:49:19;;;;;;;26.98;17.75;;;;;;;;;;6143209;28;20134;-68
2022/04/05 02:52:21;;;;;;;26.38;18.30;;;;;;;;;;6147942;28;20109;-68
2022/04/05 02:55:24;;;;;;;23.92;17.60;;;;;;;;;;6149420;28;20054;-68
2022/04/05 02:58:26;;;;;;;25.23;17.67;;;;;;;;;;6147300;28;20063;-68
2022/04/05 03:01:27;;;;;;;27.70;18.10;;;;;;;;;;6147278;28;20130;-68
2022/04/05 03:04:29;;;;;;;26.15;18.23;;;;;;;;;;6144898;28;20051;-68
2022/04/05 03:07:30;;;;;;;24.95;16.90;;;;;;;;;;6146353;28;20047;-68
2022/04/05 03:10:33;;;;;;;25.63;18.05;;;;;;;;;;6147864;28;20053;-68
2022/04/05 03:13:35;;;;;;;24.15;17.42;;;;;;;;;;6151021;28;20055;-68
2022/04/05 03:16:37;;;;;;;26.83;18.00;;;;;;;;;;6149933;28;20051;-68
2022/04/05 03:19:39;;;;;;;26.58;18.85;;;;;;;;;;6150257;28;20534;-68
2022/04/05 03:22:41;;;;;;;26.02;17.90;;;;;;;;;;6149450;28;20495;-68
2022/04/05 03:25:44;;;;;;;23.98;17.55;;;;;;;;;;6150322;28;20058;-68
2022/04/05 03:28:46;;;;;;;25.35;17.65;;;;;;;;;;6149975;28;20138;-68
2022/04/05 03:31:48;;;;;;;24.40;17.67;;;;;;;;;;6150124;28;20050;-68
2022/04/05 03:34:51;;;;;;;25.95;16.85;;;;;;;;;;6148614;28;20194;-68
2022/04/05 03:37:53;;;;;;;27.48;18.80;;;;;;;;;;6149686;28;20447;-68
2022/04/05 03:40:56;;;;;;;22.02;16.58;;;;;;;;;;6151230;28;20043;-68
2022/04/05 03:43:58;;;;;;;26.08;18.30;;;;;;;;;;6149751;28;20062;-68
2022/04/05 03:47:00;;;;;;;29.00;18.25;;;;;;;;;;6148871;28;20122;-68
2022/04/05 03:50:02;;;;;;;24.42;18.17;;;;;;;;;;6148955;28;20496;-68
2022/04/05 03:53:03;;;;;;;25.30;17.95;;;;;;;;;;6148418;28;20142;-68
2022/04/05 03:56:06;;;;;;;28.23;17.88;;;;;;;;;;6148830;28;20059;-68
2022/04/05 03:59:08;;;;;;;25.08;17.75;;;;;;;;;;6149077;28;20436;-68
2022/04/05 04:02:10;;;;;;;22.40;16.52;;;;;;;;;;6148918;28;20138;-68
2022/04/05 04:05:16;;;;;;;24.85;16.55;;;;;;;;;;6148454;28;20058;-68
2022/04/05 04:08:18;;;;;;;24.63;17.30;;;;;;;;;;6149194;28;20055;-67
2022/04/05 04:11:21;;;;;;;25.75;16.58;;;;;;;;;;6147037;28;20047;-67
2022/04/05 04:14:22;;;;;;;25.40;16.30;;;;;;;;;;6148702;28;20511;-68
2022/04/05 04:17:25;;;;;;;26.80;15.45;;;;;;;;;;6149985;28;20047;-67
2022/04/05 04:20:27;;;;;;;22.45;15.35;;;;;;;;;;6148199;28;20047;-68
2022/04/05 04:23:28;;;;;;;21.05;15.30;;;;;;;;;;6148918;28;20067;-68
2022/04/05 04:26:31;;;;;;;26.85;16.00;;;;;;;;;;6148396;28;20138;-68
2022/04/05 04:29:33;;;;;;;19.95;14.73;;;;;;;;;;6148156;28;20129;-68
2022/04/05 04:32:35;;;;;;;23.63;15.52;;;;;;;;;;6144568;28;20124;-68
2022/04/05 04:35:39;;;;;;;23.35;15.90;;;;;;;;;;6148679;28;20059;-68
2022/04/05 04:38:40;;;;;;;18.80;13.77;;;;;;;;;;6148428;28;20122;-68
2022/04/05 04:41:44;;;;;;;24.15;15.13;;;;;;;;;;6148562;28;20136;-68
2022/04/05 04:44:45;;;;;;;21.40;13.90;;;;;;;;;;6147983;28;20047;-68
2022/04/05 04:47:47;;;;;;;22.60;15.40;;;;;;;;;;6148292;28;20078;-68
2022/04/05 04:50:48;;;;;;;18.67;14.60;;;;;;;;;;6147857;28;20122;-68
2022/04/05 04:53:50;;;;;;;20.55;14.23;;;;;;;;;;6147601;28;20356;-68
2022/04/05 04:56:53;;;;;;;19.23;14.05;;;;;;;;;;6147374;28;20054;-67
2022/04/05 04:59:55;;;;;;;21.30;14.07;;;;;;;;;;6148047;28;20043;-67
2022/04/05 05:02:57;;;;;;;21.20;14.02;;;;;;;;;;6145901;28;20058;-67
2022/04/05 05:05:58;;;;;;;22.15;14.18;;;;;;;;;;6147697;28;20079;-67
2022/04/05 05:09:00;;;;;;;19.30;13.30;;;;;;;;;;6147438;28;20051;-67
2022/04/05 05:12:05;;;;;;;19.42;13.88;;;;;;;;;;6147996;28;20055;-68
2022/04/05 05:15:10;;;;;;;19.30;13.35;;;;;;;;;;6146524;28;20058;-68
2022/04/05 05:18:11;;;;;;;18.90;13.40;;;;;;;;;;6146306;28;20051;-66
2022/04/05 05:21:13;;;;;;;19.60;13.38;;;;;;;;;;6145576;28;20268;-68
2022/04/05 05:24:15;;;;;;;21.58;14.73;;;;;;;;;;6147391;28;20178;-68
2022/04/05 05:27:18;;;;;;;22.30;14.35;;;;;;;;;;6147299;28;20138;-68
2022/04/05 05:30:19;;;;;;;20.92;14.82;;;;;;;;;;6146652;28;20142;-68
2022/04/05 05:33:21;;;;;;;23.75;16.05;;;;;;;;;;6146362;28;20130;-67
2022/04/05 05:36:22;;;;;;;24.80;17.30;;;;;;;;;;6146257;28;20051;-68
2022/04/05 05:39:24;;;;;;;26.33;18.58;;;;;;;;;;6147011;28;20047;-68
2022/04/05 05:42:27;;;;;;;26.75;18.00;;;;;;;;;;6146557;28;20069;-68
2022/04/05 05:45:31;;;;;;;27.42;18.00;;;;;;;;;;6147052;28;20062;-68
2022/04/05 05:48:33;;;;;;;;;;;;;;;;;;6146538;28;20472;-68
2022/04/05 05:51:34;;;;;;;24.00;16.92;;;;;;;;;;6146478;28;19948;-69
2022/04/05 05:54:36;;;;;;;27.25;18.23;;;;;;;;;;6144522;28;20063;-70
2022/04/05 05:57:39;;;;;;;30.13;19.63;;;;;;;;;;6146330;28;20122;-68
2022/04/05 06:00:41;;;;;;;27.67;19.77;;;;;;;;;;6146124;28;20058;-68
2022/04/05 06:03:42;;;;;;;29.17;19.08;;;;;;;;;;6146681;28;20054;-68
2022/04/05 06:06:44;;;;;;;32.08;19.17;;;;;;;;;;6145577;28;20084;-68
2022/04/05 06:09:46;;;;;;;32.53;19.55;;;;;;;;;;6146131;28;20135;-68
2022/04/05 06:12:50;;;;;;;36.05;19.15;;;;;;;;;;6145636;28;20047;-69
2022/04/05 06:15:51;;;;;;;;;;;;;;;;;;6144117;28;20138;-69
2022/04/05 06:18:54;;;;;;;26.55;18.83;;;;;;;;;;6144981;28;20076;-69
2022/04/05 06:21:56;;;;;;;32.25;19.17;;;;;;;;;;6145044;28;20066;-69
2022/04/05 06:24:58;;;;;;;27.80;18.63;;;;;;;;;;6143723;28;20055;-69
2022/04/05 06:28:03;;;;;;;30.88;19.08;;;;;;;;;;6145225;28;20113;-68
2022/04/05 06:31:05;;;;;;;28.30;18.75;;;;;;;;;;6143813;28;20178;-69
2022/04/05 06:34:07;;;;;;;29.00;18.50;;;;;;;;;;6144694;28;20043;-70
2022/04/05 06:37:08;;;;;;;25.70;18.48;;;;;;;;;;6143819;28;20039;-70
2022/04/05 06:40:11;;;;;;;25.90;18.30;;;;;;;;;;6145396;28;20048;-69
2022/04/05 06:43:15;;;;;;;27.23;18.90;;;;;;;;;;6145217;28;20047;-70
2022/04/05 06:46:17;;;;;;;33.90;20.42;;;;;;;;;;6145601;28;20091;-69
2022/04/05 06:49:18;;;;;;;28.58;19.30;;;;;;;;;;6145275;28;20062;-69
2022/04/05 06:52:20;;;;;;;26.55;19.52;;;;;;;;;;6143357;28;20094;-69
2022/04/05 06:55:22;;;;;;;28.45;19.63;;;;;;;;;;6143835;28;20047;-69
2022/04/05 06:58:25;;;;;;;28.55;19.75;;;;;;;;;;6144844;28;20460;-69
2022/04/05 07:01:27;;;;;;;26.20;19.13;;;;;;;;;;6146270;28;20059;-69
2022/04/05 07:04:29;;;;;;;28.58;19.73;;;;;;;;;;6145225;28;20051;-69
2022/04/05 07:07:31;;;;;;;27.75;19.48;;;;;;;;;;6143818;28;20429;-69
2022/04/05 07:10:33;;;;;;;26.63;20.45;;;;;;;;;;6145104;28;20425;-69
2022/04/05 07:13:36;;;;;;;27.02;20.02;;;;;;;;;;6145562;28;20195;-69
2022/04/05 07:16:38;;;;;;;28.73;19.63;;;;;;;;;;6143944;28;20043;-69
2022/04/05 07:19:40;;;;;;;29.67;20.15;;;;;;;;;;6144100;28;20078;-70
2022/04/05 07:22:46;;;;;;;31.48;22.10;;;;;;;;;;6142848;28;20053;-69
2022/04/05 07:25:47;;;;;;;28.83;20.75;;;;;;;;;;6143394;28;20055;-70
2022/04/05 07:28:50;;;;;;;29.05;20.95;;;;;;;;;;6145219;28;20126;-69
2022/04/05 07:31:52;;;;;;;29.23;20.75;;;;;;;;;;6145549;28;20496;-70
2022/04/05 07:34:54;;;;;;;27.48;21.63;;;;;;;;;;6144793;28;20043;-70
2022/04/05 07:37:55;;;;;;;32.08;21.80;;;;;;;;;;6146629;28;20404;-69
2022/04/05 07:40:57;;;;;;;30.73;21.98;;;;;;;;;;6149434;28;20134;-70
2022/04/05 07:44:00;;;;;;;29.95;22.33;;;;;;;;;;6150028;28;20358;-70
2022/04/05 07:47:02;;;;;;;27.35;22.17;;;;;;;;;;6148978;28;20043;-70
2022/04/05 07:50:05;;;;;;;32.13;21.95;;;;;;;;;;6149546;28;20059;-69
2022/04/05 07:53:07;;;;;;;31.98;22.73;;;;;;;;;;6149264;28;20066;-69
2022/04/05 07:56:12;;;;;;;30.58;23.23;;;;;;;;;;6149456;28;20126;-69
2022/04/05 07:59:15;;;;;;;28.42;22.80;;;;;;;;;;6147405;28;20055;-71
2022/04/05 08:02:18;;;;;;;29.63;23.43;;;;;;;;;;6148384;28;20483;-68
2022/04/05 08:05:20;;;;;;;25.48;22.33;;;;;;;;;;6148661;28;20105;-68
2022/04/05 08:08:21;;;;;;;31.40;23.42;;;;;;;;;;6148748;28;20415;-70
2022/04/05 08:11:23;;;;;;;26.63;23.40;;;;;;;;;;6149163;28;20059;-68
2022/04/05 08:14:28;;;;;;;34.38;22.92;;;;;;;;;;6147603;28;20088;-70
2022/04/05 08:17:30;;;;;;;28.00;22.50;;;;;;;;;;6148715;28;20134;-71
2022/04/05 08:20:34;;;;;;;30.80;24.13;;;;;;;;;;6147943;28;20055;-71
2022/04/05 08:23:35;;;;;;;32.38;23.52;;;;;;;;;;6148102;28;20534;-71
2022/04/05 08:26:37;;;;;;;34.47;23.73;;;;;;;;;;6148052;28;20054;-70
2022/04/05 08:29:41;;;;;;;31.58;24.83;;;;;;;;;;6148799;28;20182;-71
2022/04/05 08:32:42;;;;;;;;;;;;;;;;;;6148479;28;20062;-70
2022/04/05 08:35:44;;;;;;;33.22;23.50;;;;;;;;;;6148662;28;20022;-71
2022/04/05 08:38:46;;;;;;;33.15;23.98;;;;;;;;;;6145570;28;20215;-79
2022/04/05 08:41:48;;;;;;;67.18;48.55;;;;;;;;;;6148904;28;20048;-77
2022/04/05 08:44:52;;;;;;;62.80;46.30;;;;;;;;;;6147262;28;20051;-75
2022/04/05 08:47:56;;;;;;;31.95;24.95;;;;;;;;;;6147960;28;20095;-71
2022/04/05 08:50:59;;;;;;;33.95;23.70;;;;;;;;;;6147902;28;20051;-71
2022/04/05 08:54:02;;;;;;;32.22;22.48;;;;;;;;;;6146858;28;20443;-72
2022/04/05 08:57:04;;;;;;;27.67;23.27;;;;;;;;;;6147570;28;20100;-72
2022/04/05 09:00:09;;;;;;;31.42;22.95;;;;;;;;;;6149290;28;20051;-72
2022/04/05 09:03:11;;;;;;;29.73;23.77;;;;;;;;;;6148587;28;20051;-72
2022/04/05 09:06:27;;;;;;;27.80;22.95;;;;;;;;;;6148389;28;20561;-71
2022/04/05 09:09:30;;;;;;;26.75;20.90;;;;;;;;;;6147185;28;20560;-71
2022/04/05 09:12:39;;;;;;;23.67;21.20;;;;;;;;;;6147752;28;20055;-71
2022/04/05 09:15:42;;;;;;;24.20;20.27;;;;;;;;;;6148128;28;20125;-71
2022/04/05 09:18:45;;;;;;;22.50;17.30;;;;;;;;;;6147601;28;20110;-71
2022/04/05 09:21:52;;;;;;;21.47;17.97;;;;;;;;;;6148044;28;20129;-72
2022/04/05 09:24:54;;;;;;;22.27;18.55;;;;;;;;;;6146171;28;20054;-72
2022/04/05 09:27:57;;;;;;;23.65;18.35;;;;;;;;;;6148160;28;20269;-71
2022/04/05 09:31:00;;;;;;;;;;;;;;;;;;6147592;28;20051;-71
2022/04/05 09:34:04;;;;;;;22.95;17.63;;;;;;;;;;6147938;28;19933;-72
2022/04/05 09:37:08;;;;;;;21.58;17.38;;;;;;;;;;6146490;28;20471;-71
2022/04/05 09:40:18;;;;;;;16.92;15.20;;;;;;;;;;6147600;28;20058;-71
2022/04/05 09:43:21;;;;;;;19.17;14.93;;;;;;;;;;6146962;28;20412;-71
2022/04/05 09:46:25;;;;;;;17.90;16.00;;;;;;;;;;6146704;28;20051;-70
2022/04/05 09:49:31;;;;;;;16.73;14.52;;;;;;;;;;6143330;28;20063;-71
2022/04/05 09:52:35;;;;;;;20.25;16.08;;;;;;;;;;6145912;28;20057;-70
2022/04/05 09:55:36;;;;;;;18.38;14.40;;;;;;;;;;6146037;28;20475;-71
2022/04/05 09:58:44;;;;;;;26.05;15.80;;;;;;;;;;6144331;28;20582;-71
2022/04/05 10:01:47;;;;;;;15.13;13.57;;;;;;;;;;6145510;28;20522;-71
2022/04/05 10:05:00;;;;;;;21.35;15.27;;;;;;;;;;6146010;28;20190;-70
2022/04/05 10:08:02;;;;;;;15.80;13.40;;;;;;;;;;6145137;28;20665;-71
2022/04/05 10:11:04;;;;;;;20.50;14.95;;;;;;;;;;6145276;28;20490;-71
2022/04/05 10:14:07;;;;;;;15.75;14.02;;;;;;;;;;6145339;28;20062;-70
2022/04/05 10:17:13;;;;;;;16.77;13.60;;;;;;;;;;6145098;28;20117;-71
2022/04/05 10:20:17;;;;;;;14.77;13.00;;;;;;;;;;6144558;28;20471;-70
2022/04/05 10:23:23;;;;;;;15.93;13.73;;;;;;;;;;6145161;28;20058;-71
2022/04/05 10:26:25;;;;;;;15.48;12.77;;;;;;;;;;6143991;28;20051;-70
2022/04/05 10:29:27;;;;;;;16.30;13.33;;;;;;;;;;6144902;28;20229;-70
2022/04/05 10:32:36;;;;;;;15.17;12.77;;;;;;;;;;6144291;28;20504;-71
2022/04/05 10:35:43;;;;;;;14.98;13.40;;;;;;;;;;6146598;28;20043;-71
2022/04/05 10:39:17;;;;;;;13.52;11.80;;;;;;;;;;6144285;28;20055;-71
2022/04/05 10:42:24;;;;;;;16.35;12.30;;;;;;;;;;6142985;28;20471;-71
2022/04/05 10:45:29;;;;;;;12.73;11.27;;;;;;;;;;6145110;28;20047;-78
2022/04/05 10:48:32;;;;;;;14.07;11.45;;;;;;;;;;6144976;28;20131;-69
2022/04/05 10:52:05;;;;;;;12.55;11.25;;;;;;;;;;6144596;28;20051;-71
2022/04/05 10:55:11;;;;;;;13.35;11.30;;;;;;;;;;6142992;28;20475;-71
2022/04/05 10:58:13;;;;;;;12.40;11.13;;;;;;;;;;6145444;28;20047;-73
2022/04/05 11:01:15;;;;;;;11.60;10.40;;;;;;;;;;6145205;28;20055;-72
2022/04/05 11:04:33;;;;;;;12.88;11.10;;;;;;;;;;6145530;28;20483;-74
2022/04/05 11:08:08;;;;;;;12.75;11.45;;;;;;;;;;6141136;28;20058;-74
2022/04/05 11:11:09;;;;;;;12.75;10.52;;;;;;;;;;6141179;28;20039;-72
2022/04/05 11:14:11;;;;;;;14.63;11.13;;;;;;;;;;6148414;28;20054;-74
2022/04/05 11:17:15;;;;;;;10.90;9.55;;;;;;;;;;6149630;28;20051;-75
2022/04/05 11:20:21;;;;;;;12.13;10.30;;;;;;;;;;6146461;28;20114;-75
2022/04/05 11:23:40;;;;;;;13.48;9.32;;;;;;;;;;6146869;28;20058;-74
2022/04/05 11:26:42;;;;;;;14.38;10.80;;;;;;;;;;6147853;28;20197;-74
2022/04/05 11:29:43;;;;;;;11.95;10.75;;;;;;;;;;6149667;28;20092;-74
2022/04/05 11:33:27;;;;;;;12.68;10.55;;;;;;;;;;6145286;28;20084;-72
2022/04/05 11:36:30;;;;;;;11.15;9.95;;;;;;;;;;6048823;29;20193;-74
2022/04/05 11:39:36;;;;;;;17.30;11.65;;;;;;;;;;6052387;29;20049;-74
2022/04/05 11:42:38;;;;;;;13.00;9.60;;;;;;;;;;6049876;29;20727;-73
2022/04/05 11:45:41;;;;;;;11.77;10.27;;;;;;;;;;6051960;29;20150;-74
2022/04/05 11:48:44;;;;;;;11.88;10.55;;;;;;;;;;6051243;29;20085;-75
2022/04/05 11:51:49;;;;;;;12.93;11.20;;;;;;;;;;6050960;29;20657;-73
2022/04/05 11:58:11;;;;;;;12.45;10.25;;;;;;;;;;6051843;29;20052;-75
2022/04/05 12:01:13;;;;;;;12.10;9.43;;;;;;;;;;6051607;29;20057;-74
2022/04/05 12:04:17;;;;;;;12.95;10.23;;;;;;;;;;6051292;29;20135;-75
2022/04/05 12:07:20;;;;;;;11.40;10.20;;;;;;;;;;6049518;29;20049;-74
2022/04/05 12:10:23;;;;;;;10.13;9.13;;;;;;;;;;6047047;29;20112;-74
2022/04/05 12:13:28;;;;;;;;;;;;;;;;;;6142889;28;20475;-74
2022/04/05 12:16:32;;;;;;;16.33;9.40;;;;;;;;;;6145485;28;19945;-74
2022/04/05 12:19:35;;;;;;;11.45;9.00;;;;;;;;;;6153354;28;20051;-75
2022/04/05 12:22:38;;;;;;;18.08;15.85;;;;;;;;;;6148198;28;20138;-74
2022/04/05 12:25:40;;;;;;;24.48;19.35;;;;;;;;;;6148636;28;20246;-75
2022/04/05 12:28:43;;;;;;;11.17;9.40;;;;;;;;;;6148643;28;20058;-76
2022/04/05 12:31:45;;;;;;;10.88;8.35;;;;;;;;;;6149055;28;20098;-76
2022/04/05 12:34:47;;;;;;;10.43;9.33;;;;;;;;;;6148218;28;20044;-75
2022/04/05 12:37:49;;;;;;;9.43;8.50;;;;;;;;;;6146000;28;20527;-76
2022/04/05 12:40:53;;;;;;;12.82;9.38;;;;;;;;;;6146546;28;20043;-74
2022/04/05 12:44:08;;;;;;;10.70;9.60;;;;;;;;;;6147130;28;20043;-77
2022/04/05 12:47:11;;;;;;;11.00;9.80;;;;;;;;;;6146671;28;20047;-75
2022/04/05 12:50:13;;;;;;;10.85;9.25;;;;;;;;;;6147923;28;20043;-77
2022/04/05 12:53:27;;;;;;;10.07;8.95;;;;;;;;;;6145998;28;20058;-77
2022/04/05 12:56:32;;;;;;;8.90;8.00;;;;;;;;;;6145447;28;20673;-75
2022/04/05 12:59:34;;;;;;;11.23;8.88;;;;;;;;;;6147020;28;20082;-76
2022/04/05 13:02:37;;;;;;;10.38;9.30;;;;;;;;;;6145859;28;20631;-76
2022/04/05 13:09:09;;;;;;;11.57;10.38;;;;;;;;;;6147013;28;20051;-77
2022/04/05 13:12:16;;;;;;;10.95;9.68;;;;;;;;;;6145643;28;20058;-76
2022/04/05 13:15:22;;;;;;;10.88;9.15;;;;;;;;;;6145621;28;20514;-76
2022/04/05 13:18:32;;;;;;;11.18;9.85;;;;;;;;;;6127132;28;20054;-75
2022/04/05 13:21:45;;;;;;;10.80;9.70;;;;;;;;;;6148467;28;20199;-75
2022/04/05 13:24:49;;;;;;;10.55;9.45;;;;;;;;;;6146412;28;20051;-76
2022/04/05 13:28:00;;;;;;;10.05;8.73;;;;;;;;;;6148636;28;20051;-76
2022/04/05 13:31:10;;;;;;;11.50;9.35;;;;;;;;;;6145952;28;20069;-76
2022/04/05 13:34:12;;;;;;;10.88;9.15;;;;;;;;;;6145552;28;20706;-78
2022/04/05 13:37:16;;;;;;;11.52;9.68;;;;;;;;;;6145518;28;20047;-76
2022/04/05 13:40:19;;;;;;;10.82;8.93;;;;;;;;;;6147907;28;20051;-76
2022/04/05 13:43:21;;;;;;;10.57;9.23;;;;;;;;;;6146940;28;20134;-77
2022/04/05 13:46:23;;;;;;;9.88;8.80;;;;;;;;;;6147001;28;20529;-75
2022/04/05 13:49:24;;;;;;;13.07;9.95;;;;;;;;;;6147658;28;20125;-76
2022/04/05 13:52:26;;;;;;;13.43;10.35;;;;;;;;;;6146822;28;20606;-76
2022/04/05 13:55:29;;;;;;;11.20;9.75;;;;;;;;;;6147113;28;20087;-77
2022/04/05 13:58:31;;;;;;;11.43;9.40;;;;;;;;;;6145724;28;20054;-76
2022/04/05 14:01:33;;;;;;;15.10;10.70;;;;;;;;;;6144177;28;20623;-77
2022/04/05 14:04:34;;;;;;;13.00;9.93;;;;;;;;;;6146680;28;20059;-76
2022/04/05 14:07:38;;;;;;;11.75;9.75;;;;;;;;;;6146413;28;20103;-77
2022/04/05 14:10:41;;;;;;;12.80;10.43;;;;;;;;;;6145252;28;20145;-77
2022/04/05 14:13:43;;;;;;;13.93;10.07;;;;;;;;;;6146383;28;20043;-77
2022/04/05 14:16:46;;;;;;;13.87;9.83;;;;;;;;;;6146345;28;20054;-78
2022/04/05 14:19:48;;;;;;;11.80;10.48;;;;;;;;;;6145962;28;20054;-76
2022/04/05 14:22:50;;;;;;;13.00;11.00;;;;;;;;;;6145280;28;20055;-77
2022/04/05 14:25:53;;;;;;;10.53;9.43;;;;;;;;;;6145455;28;20083;-78
2022/04/05 14:28:56;;;;;;;12.32;10.45;;;;;;;;;;6144068;28;20075;-77
2022/04/05 14:31:57;;;;;;;14.30;11.30;;;;;;;;;;6145594;28;20543;-77
2022/04/05 14:35:01;;;;;;;15.30;12.13;;;;;;;;;;6143419;28;20202;-76
2022/04/05 14:38:03;;;;;;;12.32;11.13;;;;;;;;;;6145551;28;20050;-77
2022/04/05 14:41:07;;;;;;;12.77;11.48;;;;;;;;;;6144966;28;20209;-78
2022/04/05 14:44:08;;;;;;;15.07;11.68;;;;;;;;;;6145423;28;20527;-77
2022/04/05 14:47:11;;;;;;;14.20;10.85;;;;;;;;;;6146922;28;20396;-77
2022/04/05 14:50:12;;;;;;;16.98;10.35;;;;;;;;;;6151054;28;20113;-77
2022/04/05 14:53:14;;;;;;;19.60;10.10;;;;;;;;;;6149756;28;20131;-78
2022/04/05 14:56:17;;;;;;;10.70;9.50;;;;;;;;;;6150151;28;20447;-78
2022/04/05 14:59:19;;;;;;;13.75;9.70;;;;;;;;;;6149298;28;20051;-77
2022/04/05 15:02:22;;;;;;;20.00;11.38;;;;;;;;;;6148797;28;20055;-77
2022/04/05 15:05:23;;;;;;;12.93;10.98;;;;;;;;;;6149330;28;20051;-77
2022/04/05 15:08:25;;;;;;;15.50;11.53;;;;;;;;;;6148844;28;20133;-76
2022/04/05 15:11:28;;;;;;;39.35;12.40;;;;;;;;;;6149556;28;20073;-77
2022/04/05 15:14:30;;;;;;;12.82;11.43;;;;;;;;;;6148570;28;20062;-75
2022/04/05 15:17:32;;;;;;;17.50;11.60;;;;;;;;;;6149731;28;20517;-77
2022/04/05 15:20:34;;;;;;;20.25;10.73;;;;;;;;;;6148281;28;20055;-76
2022/04/05 15:23:36;;;;;;;14.00;10.37;;;;;;;;;;6148564;28;20074;-77
2022/04/05 15:26:39;;;;;;;16.60;10.43;;;;;;;;;;6148238;28;20051;-77
2022/04/05 15:29:44;;;;;;;19.33;12.80;;;;;;;;;;6149033;28;20051;-77
2022/04/05 15:32:46;;;;;;;17.20;11.88;;;;;;;;;;6146591;28;20491;-76
2022/04/05 15:35:47;;;;;;;13.95;11.50;;;;;;;;;;6148742;28;20059;-76
2022/04/05 15:38:49;;;;;;;20.00;14.48;;;;;;;;;;6147964;28;20039;-76
2022/04/05 15:41:52;;;;;;;19.00;16.63;;;;;;;;;;6148993;28;20411;-76
2022/04/05 15:44:54;;;;;;;18.45;14.80;;;;;;;;;;6146837;28;20465;-72
2022/04/05 15:47:56;;;;;;;35.77;28.43;;;;;;;;;;6149158;28;20571;-72
2022/04/05 15:50:58;;;;;;;23.35;20.10;;;;;;;;;;6148900;28;20102;-73
2022/04/05 15:54:00;;;;;;;16.27;12.87;;;;;;;;;;6149192;28;20047;-73
2022/04/05 15:57:03;;;;;;;12.60;11.30;;;;;;;;;;6149415;28;20533;-74
2022/04/05 16:00:06;;;;;;;14.63;11.57;;;;;;;;;;6147656;28;20070;-73
2022/04/05 16:03:08;;;;;;;12.88;11.52;;;;;;;;;;6147612;28;20503;-74
2022/04/05 16:06:10;;;;;;;18.55;10.90;;;;;;;;;;6147255;28;20134;-73
2022/04/05 16:09:12;;;;;;;12.88;10.70;;;;;;;;;;6147624;28;20059;-73
2022/04/05 16:12:15;;;;;;;13.32;11.32;;;;;;;;;;6148903;28;20136;-72
2022/04/05 16:15:17;;;;;;;12.00;10.18;;;;;;;;;;6145759;28;20058;-74
2022/04/05 16:18:18;;;;;;;13.38;10.60;;;;;;;;;;6148972;28;20527;-74
2022/04/05 16:21:20;;;;;;;12.63;9.93;;;;;;;;;;6148175;28;20070;-74
2022/04/05 16:24:22;;;;;;;11.83;10.53;;;;;;;;;;6147285;28;20058;-74
2022/04/05 16:27:25;;;;;;;;;;;;;;;;;;6148427;28;20953;-73
2022/04/05 16:30:27;;;;;;;12.50;10.88;;;;;;;;;;6146974;28;20389;-73
2022/04/05 16:33:29;;;;;;;15.23;10.73;;;;;;;;;;6146286;28;20369;-74
2022/04/05 16:36:30;;;;;;;16.10;11.40;;;;;;;;;;6147444;28;20097;-74
2022/04/05 16:39:32;;;;;;;16.55;10.73;;;;;;;;;;6144209;28;20478;-74
2022/04/05 16:42:35;;;;;;;17.10;11.53;;;;;;;;;;6146470;28;20053;-73
2022/04/05 16:45:37;;;;;;;16.75;11.23;;;;;;;;;;6147200;28;20054;-73
2022/04/05 16:48:39;;;;;;;15.63;11.48;;;;;;;;;;6146875;28;20051;-72
2022/04/05 16:51:41;;;;;;;12.45;10.63;;;;;;;;;;6145160;28;20051;-73
2022/04/05 16:54:43;;;;;;;;;;;;;;;;;;6147528;28;20051;-72
2022/04/05 16:57:45;;;;;;;13.43;11.38;;;;;;;;;;6147272;28;19926;-74
2022/04/05 17:00:47;;;;;;;16.27;11.50;;;;;;;;;;6145993;28;20051;-72
2022/04/05 17:03:51;;;;;;;15.20;10.57;;;;;;;;;;6147557;28;20051;-72
2022/04/05 17:06:53;;;;;;;16.92;11.48;;;;;;;;;;6148437;28;20407;-74
2022/04/05 17:09:54;;;;;;;19.00;12.23;;;;;;;;;;6142061;28;20461;-73
2022/04/05 17:12:57;;;;;;;13.60;10.85;;;;;;;;;;6145704;28;20153;-73
2022/04/05 17:15:59;;;;;;;14.88;10.90;;;;;;;;;;6147616;28;20055;-75
2022/04/05 17:19:01;;;;;;;13.90;10.77;;;;;;;;;;6146171;28;20616;-73
2022/04/05 17:22:03;;;;;;;14.68;10.10;;;;;;;;;;6146976;28;20095;-74
2022/04/05 17:25:06;;;;;;;16.42;11.07;;;;;;;;;;6143595;28;20106;-73
2022/04/05 17:28:10;;;;;;;13.18;9.90;;;;;;;;;;6147404;28;20051;-73
2022/04/05 17:31:11;;;;;;;15.32;10.30;;;;;;;;;;6147110;28;20140;-74
2022/04/05 17:34:13;;;;;;;21.30;11.77;;;;;;;;;;6146824;28;20043;-73
2022/04/05 17:37:16;;;;;;;19.02;12.32;;;;;;;;;;6146846;28;20058;-72
2022/04/05 17:40:17;;;;;;;19.48;12.18;;;;;;;;;;6147074;28;20047;-72
2022/04/05 17:43:20;;;;;;;16.95;12.60;;;;;;;;;;6146483;28;20077;-72
2022/04/05 17:46:22;;;;;;;18.92;11.85;;;;;;;;;;6145563;28;20206;-72
2022/04/05 17:49:24;;;;;;;19.90;12.75;;;;;;;;;;6145510;28;20051;-73
2022/04/05 17:52:26;;;;;;;21.63;12.70;;;;;;;;;;6146074;28;20056;-73
2022/04/05 17:55:28;;;;;;;21.65;14.07;;;;;;;;;;6146450;28;20503;-74
2022/04/05 17:58:31;;;;;;;29.35;16.60;;;;;;;;;;6146432;28;21001;-74